createdAt,value
2023-01-29T00:02:17.167Z,-1.45
2023-01-29T00:10:40.236Z,-1.49
2023-01-29T00:19:04.191Z,-1.42
2023-01-29T00:27:27.129Z,-1.42
2023-01-29T00:35:49.973Z,-1.51
2023-01-29T00:44:31.361Z,-1.63
2023-01-29T00:52:54.741Z,-1.70
2023-01-29T01:01:17.809Z,-1.62
2023-01-29T01:09:59.354Z,-1.66
2023-01-29T01:18:22.524Z,-1.75
2023-01-29T01:26:45.359Z,-1.85
2023-01-29T01:35:13.781Z,-1.90
2023-01-29T01:44:03.066Z,-1.97
2023-01-29T01:52:26.199Z,-1.94
2023-01-29T02:00:49.334Z,-1.93
2023-01-29T02:09:39.049Z,-2.00
2023-01-29T02:18:03.147Z,-2.04
2023-01-29T02:26:39.346Z,-2.10
2023-01-29T02:35:29.978Z,-2.12
2023-01-29T02:44:07.691Z,-2.13
2023-01-29T02:52:37.905Z,-2.10
2023-01-29T03:01:09.305Z,-2.02
2023-01-29T03:09:44.679Z,-2.04
2023-01-29T03:18:14.263Z,-2.11
2023-01-29T03:26:55.621Z,-2.16
2023-01-29T03:35:36.722Z,-2.23
2023-01-29T03:44:06.496Z,-2.26
2023-01-29T03:52:41.984Z,-2.24
2023-01-29T04:01:18.581Z,-2.23
2023-01-29T04:09:56.382Z,-2.25
2023-01-29T04:18:19.487Z,-2.25
2023-01-29T04:27:12.929Z,-2.24
2023-01-29T04:36:00.181Z,-2.13
2023-01-29T04:44:32.229Z,-2.14
2023-01-29T04:53:12.068Z,-2.22
2023-01-29T05:01:35.741Z,-2.31
2023-01-29T05:10:00.560Z,-2.36
2023-01-29T05:18:24.541Z,-2.38
2023-01-29T05:27:08.538Z,-2.30
2023-01-29T05:35:31.964Z,-2.23
2023-01-29T05:43:55.106Z,-2.27
2023-01-29T05:52:18.136Z,-2.31
2023-01-29T06:00:41.203Z,-2.35
2023-01-29T06:09:04.531Z,-2.22
2023-01-29T06:17:28.865Z,-2.19
2023-01-29T06:25:51.714Z,-2.23
2023-01-29T06:34:14.669Z,-2.24
2023-01-29T06:42:37.571Z,-2.23
2023-01-29T06:51:05.850Z,-2.07
2023-01-29T06:59:30.170Z,-1.98
2023-01-29T07:07:53.471Z,-1.96
2023-01-29T07:16:16.595Z,-1.92
2023-01-29T07:24:40.153Z,-1.72
2023-01-29T07:33:09.108Z,-1.57
2023-01-29T07:41:32.217Z,-1.61
2023-01-29T07:49:56.514Z,-1.50
2023-01-29T07:58:19.862Z,-1.31
2023-01-29T08:06:44.757Z,-1.07
2023-01-29T08:15:08.652Z,-0.99
2023-01-29T08:23:32.178Z,-0.94
2023-01-29T08:31:55.822Z,-0.97
2023-01-29T08:40:19.039Z,-0.82
2023-01-29T08:48:42.273Z,-0.80
2023-01-29T08:57:05.173Z,-0.49
2023-01-29T09:05:29.075Z,-0.45
2023-01-29T09:13:52.404Z,-0.51
2023-01-29T09:22:16.871Z,-0.43
2023-01-29T09:30:40.865Z,-0.23
2023-01-29T09:39:03.900Z,-0.03
2023-01-29T09:47:28.201Z,0.09
2023-01-29T09:55:59.981Z,0.30
2023-01-29T10:04:49.750Z,0.24
2023-01-29T10:13:20.091Z,0.62
2023-01-29T10:21:50.818Z,0.78
2023-01-29T10:30:25.893Z,0.66
2023-01-29T10:38:51.129Z,0.86
2023-01-29T10:47:23.204Z,0.94
2023-01-29T10:55:55.360Z,1.03
2023-01-29T11:04:19.598Z,0.70
2023-01-29T11:12:43.980Z,0.67
2023-01-29T11:21:08.979Z,0.60
2023-01-29T11:29:51.357Z,0.54
2023-01-29T11:38:15.955Z,0.50
2023-01-29T11:46:40.422Z,0.37
2023-01-29T11:55:17.432Z,0.44
2023-01-29T12:03:45.051Z,0.55
2023-01-29T12:12:26.791Z,0.35
2023-01-29T12:20:59.072Z,0.18
2023-01-29T12:29:44.458Z,0.18
2023-01-29T12:38:27.046Z,0.15
2023-01-29T12:46:56.858Z,0.25
2023-01-29T12:55:24.884Z,0.25
2023-01-29T13:03:59.586Z,0.31
2023-01-29T13:12:24.579Z,0.28
2023-01-29T13:20:49.729Z,0.17
2023-01-29T13:29:24.525Z,0.05
2023-01-29T13:37:53.879Z,-0.02
2023-01-29T13:46:21.565Z,0.01
2023-01-29T13:55:06.823Z,-0.09
2023-01-29T14:03:35.912Z,-0.14
2023-01-29T14:12:21.957Z,-0.22
2023-01-29T14:20:47.925Z,-0.32
2023-01-29T14:29:21.504Z,-0.36
2023-01-29T14:37:56.488Z,-0.28
2023-01-29T14:46:35.436Z,-0.27
2023-01-29T14:55:01.765Z,-0.48
2023-01-29T15:03:45.727Z,-0.50
2023-01-29T15:12:20.988Z,-0.55
2023-01-29T15:20:44.684Z,-0.61
2023-01-29T15:29:24.951Z,-0.64
2023-01-29T15:37:59.403Z,-0.70
2023-01-29T15:46:27.188Z,-0.86
2023-01-29T15:54:51.592Z,-0.82
2023-01-29T16:03:16.026Z,-0.81
2023-01-29T16:11:40.363Z,-0.84
2023-01-29T16:20:07.599Z,-0.89
2023-01-29T16:28:31.043Z,-0.78
2023-01-29T16:36:55.555Z,-0.75
2023-01-29T16:45:28.423Z,-0.75
2023-01-29T16:54:12.425Z,-0.75
2023-01-29T17:02:39.606Z,-0.71
2023-01-29T17:11:03.597Z,-0.75
2023-01-29T17:19:27.203Z,-0.82
2023-01-29T17:27:53.394Z,-0.90
2023-01-29T17:36:18.253Z,-0.94
2023-01-29T17:44:44.010Z,-0.93
2023-01-29T17:53:09.112Z,-0.96
2023-01-29T18:01:33.041Z,-0.97
2023-01-29T18:10:00.583Z,-0.88
2023-01-29T18:18:29.075Z,-0.86
2023-01-29T18:26:54.259Z,-0.80
2023-01-29T18:35:19.869Z,-0.85
2023-01-29T18:43:44.677Z,-0.90
2023-01-29T18:52:08.903Z,-0.91
2023-01-29T19:00:35.634Z,-0.86
2023-01-29T19:08:59.182Z,-0.88
2023-01-29T19:17:26.805Z,-0.87
2023-01-29T19:25:49.967Z,-0.88
2023-01-29T19:34:16.021Z,-0.79
2023-01-29T19:42:39.885Z,-0.79
2023-01-29T19:51:08.407Z,-0.80
2023-01-29T19:59:32.505Z,-0.81
2023-01-29T20:07:55.584Z,-0.80
2023-01-29T20:16:20.379Z,-0.84
2023-01-29T20:24:44.163Z,-0.86
2023-01-29T20:33:07.826Z,-0.83
2023-01-29T20:41:30.824Z,-0.89
2023-01-29T20:49:53.786Z,-0.91
2023-01-29T20:58:17.338Z,-0.88
2023-01-29T21:06:44.840Z,-0.85
2023-01-29T21:15:11.792Z,-0.81
2023-01-29T21:23:34.756Z,-0.83
2023-01-29T21:31:58.128Z,-0.76
2023-01-29T21:40:21.531Z,-0.74
2023-01-29T21:48:44.773Z,-0.73
2023-01-29T21:57:12.369Z,-0.70
2023-01-29T22:05:40.530Z,-0.72
2023-01-29T22:14:03.701Z,-0.68
2023-01-29T22:22:26.958Z,-0.74
2023-01-29T22:30:49.907Z,-0.76
2023-01-29T22:39:13.572Z,-0.73
2023-01-29T22:47:36.549Z,-0.77
2023-01-29T22:55:59.855Z,-0.81
2023-01-29T23:04:23.235Z,-0.77
2023-01-29T23:12:46.158Z,-0.80
2023-01-29T23:21:09.739Z,-0.74
2023-01-29T23:29:32.759Z,-0.73
2023-01-29T23:37:57.388Z,-0.71
2023-01-29T23:46:20.406Z,-0.66
2023-01-29T23:54:43.542Z,-0.63
